Eldora, New Jersey
Current Conditions -  °F | °C
As of 6:54 PM on Friday 28 Nov 2014 (Local Time) from KMIV Reporting Station
Clear Clear  
Wind Chill: 30°   Ceiling: Unl
Heat Index: 30°   Visibility: 10mi
Dew Point: 16°   Wind: 3mph
Humidity: 56%   Direction: 300°WNW
Pressure: 30.27"   Gusts: NA
Location:  39.2589°N, 74.8124°W
Report Text: KMIV 282354Z AUTO 30003KT 10SM CLR M01/M09 A3027 RMK AO2 SLP248 T10111089 10050 21011 51009
Loading
Personal Weather Stations






























Interactive Weather Map New forecast layout! Learn more

10-Day Weather Forecast

Advertisements
Track Severe Weather on mobile